Time;durP1;ratioP1;P1;durP2;ratioP2;P2;SDS_P1;SDS_P2;PMS_P1;PMS_P2;Temp;Humidity;BMP_temperature;BMP_pressure;BME280_temperature;BME280_humidity;BME280_pressure;Samples;Min_cycle;Max_cycle;Signal;HPM_P1;HPM_P2
2023/04/24 00:02:15;;;;;;;5.40;3.50;;;;;;;;;;10266060;28;20051;-82
2023/04/24 00:07:19;;;;;;;5.25;3.90;;;;;;;;;;10252194;28;20687;-84
2023/04/24 00:12:21;;;;;;;5.70;3.67;;;;;;;;;;10287792;28;20043;-85
2023/04/24 00:17:23;;;;;;;7.70;3.60;;;;;;;;;;10326799;28;20034;-82
2023/04/24 00:22:26;;;;;;;4.50;3.22;;;;;;;;;;10305775;28;20134;-81
2023/04/24 00:27:26;;;;;;;3.83;3.45;;;;;;;;;;10272681;28;20043;-83
2023/04/24 00:32:27;;;;;;;4.22;3.30;;;;;;;;;;10253003;28;20047;-82
2023/04/24 00:37:29;;;;;;;5.13;3.50;;;;;;;;;;10287074;28;20463;-84
2023/04/24 00:42:31;;;;;;;4.85;3.35;;;;;;;;;;10306324;28;20039;-82
2023/04/24 00:47:33;;;;;;;7.05;3.53;;;;;;;;;;10272855;28;20881;-83
2023/04/24 00:52:33;;;;;;;5.22;3.83;;;;;;;;;;10282443;28;20043;-80
2023/04/24 00:57:34;;;;;;;4.47;2.95;;;;;;;;;;10278950;28;20058;-80
2023/04/24 01:02:34;;;;;;;5.63;3.77;;;;;;;;;;10292170;28;20042;-84
2023/04/24 01:07:35;;;;;;;5.80;3.47;;;;;;;;;;10298284;28;20307;-85
2023/04/24 01:12:36;;;;;;;4.53;3.30;;;;;;;;;;10300198;28;20055;-81
2023/04/24 01:17:38;;;;;;;4.72;3.47;;;;;;;;;;10264772;28;20055;-81
2023/04/24 01:22:38;;;;;;;4.63;3.22;;;;;;;;;;10261811;28;20044;-81
2023/04/24 01:27:40;;;;;;;5.53;3.33;;;;;;;;;;10264534;28;20378;-83
2023/04/24 01:32:41;;;;;;;4.20;3.20;;;;;;;;;;10254297;28;20091;-83
2023/04/24 01:37:44;;;;;;;4.03;2.97;;;;;;;;;;10262645;28;20054;-84
2023/04/24 01:42:44;;;;;;;4.10;2.80;;;;;;;;;;10267453;28;20047;-81
2023/04/24 01:47:45;;;;;;;3.35;2.85;;;;;;;;;;10266847;28;20058;-82
2023/04/24 01:52:47;;;;;;;3.38;2.28;;;;;;;;;;10272501;28;20089;-83
2023/04/24 01:57:47;;;;;;;5.63;3.00;;;;;;;;;;10253368;28;20039;-82
2023/04/24 02:02:47;;;;;;;3.80;2.40;;;;;;;;;;10267001;28;20941;-82
2023/04/24 02:07:47;;;;;;;2.70;2.40;;;;;;;;;;10262137;28;20951;-81
2023/04/24 02:12:48;;;;;;;2.90;2.10;;;;;;;;;;10270153;28;20051;-82
2023/04/24 02:17:49;;;;;;;3.63;2.53;;;;;;;;;;10263507;28;20058;-82
2023/04/24 02:22:49;;;;;;;3.97;2.60;;;;;;;;;;10270881;28;20066;-84
2023/04/24 02:27:52;;;;;;;3.40;2.35;;;;;;;;;;10289994;28;20045;-83
2023/04/24 02:32:52;;;;;;;2.87;2.10;;;;;;;;;;10333507;28;20046;-84
2023/04/24 02:37:53;;;;;;;2.42;2.08;;;;;;;;;;10311700;28;20031;-81
2023/04/24 02:42:54;;;;;;;4.95;2.28;;;;;;;;;;10273083;28;20416;-83
2023/04/24 02:47:54;;;;;;;3.47;2.08;;;;;;;;;;10250405;28;20055;-82
2023/04/24 02:52:54;;;;;;;3.10;2.20;;;;;;;;;;10268566;28;20090;-82
2023/04/24 02:57:56;;;;;;;5.38;2.53;;;;;;;;;;10263225;28;20054;-81
2023/04/24 03:02:56;;;;;;;2.60;2.20;;;;;;;;;;10252296;28;20063;-83
2023/04/24 03:07:58;;;;;;;3.00;2.10;;;;;;;;;;10256356;28;20085;-82
2023/04/24 03:12:58;;;;;;;4.53;2.10;;;;;;;;;;10273045;28;20055;-78
2023/04/24 03:18:00;;;;;;;3.47;2.03;;;;;;;;;;10259991;28;20075;-79
2023/04/24 03:23:01;;;;;;;2.97;2.03;;;;;;;;;;10259496;28;20046;-80
2023/04/24 03:28:01;;;;;;;2.65;1.90;;;;;;;;;;10229582;28;20059;-80
2023/04/24 03:33:18;;;;;;;2.50;1.92;;;;;;;;;;10248985;28;20051;-82
2023/04/24 03:38:28;;;;;;;2.53;1.80;;;;;;;;;;10251961;28;20054;-80
2023/04/24 03:43:49;;;;;;;2.65;2.15;;;;;;;;;;10241057;28;20455;-81
2023/04/24 03:48:50;;;;;;;4.03;2.20;;;;;;;;;;10251712;28;20070;-83
2023/04/24 03:53:53;;;;;;;4.10;2.22;;;;;;;;;;10231632;28;20074;-82
2023/04/24 03:58:56;;;;;;;;;;;;;;;;;;10248266;28;20149;-86
2023/04/24 04:03:56;;;;;;;3.30;2.07;;;;;;;;;;10271786;28;19918;-84
2023/04/24 04:09:04;;;;;;;3.05;2.25;;;;;;;;;;10264133;28;20062;-85
2023/04/24 04:14:05;;;;;;;2.47;2.22;;;;;;;;;;10275578;28;20067;-85
2023/04/24 04:19:07;;;;;;;2.70;2.10;;;;;;;;;;10234067;28;20087;-84
2023/04/24 04:24:09;;;;;;;2.90;1.98;;;;;;;;;;10246891;28;20233;-83
2023/04/24 04:29:17;;;;;;;3.55;2.30;;;;;;;;;;10250292;28;20081;-84
2023/04/24 04:34:19;;;;;;;2.95;2.10;;;;;;;;;;10257332;28;20050;-76
